Time;durP1;ratioP1;P1;durP2;ratioP2;P2;SDS_P1;SDS_P2;PMS_P1;PMS_P2;Temp;Humidity;BMP_temperature;BMP_pressure;BME280_temperature;BME280_humidity;BME280_pressure;Samples;Min_cycle;Max_cycle;Signal;HPM_P1;HPM_P2
2021/12/20 00:02:16;;;;;;;;;25.50;23.75;;;;;6.57;71.69;102063.66;5035902;28;45345;-57
2021/12/20 00:04:44;;;;;;;;;22.00;21.50;;;;;6.86;72.05;102105.44;5036264;28;45354;-55
2021/12/20 00:07:10;;;;;;;;;24.80;23.00;;;;;6.85;71.41;102101.88;5035789;28;46874;-61
2021/12/20 00:09:35;;;;;;;;;28.25;23.25;;;;;6.78;71.25;102092.56;5035995;28;45624;-62
2021/12/20 00:12:01;;;;;;;;;26.50;23.25;;;;;6.62;71.21;102068.69;5017779;28;45462;-62
2021/12/20 00:14:26;;;;;;;;;29.50;25.75;;;;;6.79;71.89;102099.75;5036014;28;45323;-61
2021/12/20 00:16:52;;;;;;;;;26.75;22.50;;;;;6.77;72.17;102093.56;5035903;28;45494;-57
2021/12/20 00:19:17;;;;;;;;;37.25;31.25;;;;;6.84;71.71;102097.38;5035884;28;45339;-60
2021/12/20 00:21:42;;;;;;;;;29.00;27.25;;;;;6.86;71.51;102092.66;5001349;28;45376;-51
2021/12/20 00:24:08;;;;;;;;;26.25;23.25;;;;;6.61;72.03;102054.19;5035754;28;46074;-60
2021/12/20 00:26:33;;;;;;;;;35.50;28.75;;;;;6.81;71.57;102059.50;5035413;28;45450;-57
2021/12/20 00:28:59;;;;;;;;;33.25;25.00;;;;;6.93;72.15;102086.59;5017337;28;45371;-59
2021/12/20 00:31:25;;;;;;;;;30.75;26.50;;;;;6.86;71.20;102084.47;5017985;28;45433;-61
2021/12/20 00:33:50;;;;;;;;;38.50;30.50;;;;;6.63;71.41;102051.31;5035856;28;45413;-62
2021/12/20 00:36:21;;;;;;;;;25.00;24.75;;;;;6.62;71.70;102053.16;5017418;28;47226;-62
2021/12/20 00:41:31;;;;;;;;;27.00;24.40;;;;;6.78;71.65;102082.50;5035611;28;45720;-57
2021/12/20 00:43:56;;;;;;;;;27.00;21.75;;;;;6.77;71.80;102082.66;5017475;28;45505;-59
2021/12/20 00:46:21;;;;;;;;;37.00;29.50;;;;;6.77;72.41;102079.91;5035063;28;46664;-58
2021/12/20 00:48:47;;;;;;;;;41.75;33.75;;;;;6.72;72.15;102077.66;5017878;28;45375;-55
2021/12/20 00:51:13;;;;;;;;;19.50;19.00;;;;;6.77;72.03;102080.78;5017498;28;45280;-56
2021/12/20 00:53:38;;;;;;;;;32.00;26.25;;;;;6.81;72.35;102078.59;5035728;28;45923;-64
2021/12/20 00:56:04;;;;;;;;;30.25;24.50;;;;;6.77;72.30;102083.53;5017290;28;46343;-62
2021/12/20 00:58:29;;;;;;;;;35.75;26.50;;;;;6.80;72.62;102081.47;5035221;28;45423;-62
2021/12/20 01:00:56;;;;;;;;;29.00;23.50;;;;;6.81;72.45;102073.16;5033299;28;45413;-57
2021/12/20 01:03:22;;;;;;;;;36.80;29.60;;;;;6.90;72.34;102074.94;5035325;28;45432;-58
2021/12/20 01:05:47;;;;;;;;;28.75;23.75;;;;;6.91;71.56;102070.34;5035120;28;45769;-59
2021/12/20 01:08:13;;;;;;;;;23.00;20.50;;;;;6.95;71.42;102062.72;5034926;28;45693;-58
2021/12/20 01:10:44;;;;;;;;;27.00;23.00;;;;;6.94;71.78;102066.47;5035173;28;45358;-56
2021/12/20 01:13:09;;;;;;;;;27.60;22.80;;;;;6.95;71.43;102059.97;5035235;28;45490;-64
2021/12/20 01:15:43;;;;;;;;;26.00;23.00;;;;;6.95;71.31;102065.44;5017130;28;45411;-60
2021/12/20 01:18:09;;;;;;;;;25.60;19.00;;;;;6.93;71.70;102062.00;5034826;28;45364;-55
2021/12/20 01:20:35;;;;;;;;;28.75;22.75;;;;;6.95;71.65;102062.72;5033674;28;45367;-60
2021/12/20 01:23:00;;;;;;;;;28.40;24.00;;;;;6.90;71.80;102055.84;5012889;28;45697;-62
2021/12/20 01:25:26;;;;;;;;;27.75;21.00;;;;;6.87;71.54;102047.97;5011361;28;45482;-62
2021/12/20 01:27:51;;;;;;;;;23.50;18.50;;;;;6.89;71.64;102053.28;5012356;28;45439;-63
2021/12/20 01:30:19;;;;;;;;;30.00;25.50;;;;;6.88;71.70;102043.38;4995377;28;45365;-61
2021/12/20 01:32:45;;;;;;;;;22.80;21.20;;;;;6.93;71.95;102051.09;5014620;28;45337;-58
2021/12/20 01:35:11;;;;;;;;;27.00;22.60;;;;;6.91;71.54;102053.97;5012996;28;46743;-57
2021/12/20 01:37:36;;;;;;;;;20.75;18.75;;;;;6.94;71.61;102047.34;5013655;28;45376;-52
2021/12/20 01:40:04;;;;;;;;;27.00;22.50;;;;;6.85;71.77;102054.59;4996987;28;45263;-61
2021/12/20 01:42:32;;;;;;;;;27.20;20.80;;;;;6.80;71.66;102059.66;5012032;28;45573;-63
2021/12/20 01:44:58;;;;;;;;;29.40;18.80;;;;;6.80;71.56;102056.91;5012341;28;46647;-61
2021/12/20 01:47:33;;;;;;;;;27.00;23.25;;;;;6.77;71.39;102052.63;5014653;28;45656;-59
2021/12/20 01:50:05;;;;;;;;;33.40;25.40;;;;;6.82;71.76;102057.66;5015052;28;45277;-64
2021/12/20 01:52:39;;;;;;;;;26.60;20.00;;;;;6.84;71.44;102050.16;4997273;28;45399;-53
2021/12/20 01:55:09;;;;;;;;;27.40;23.20;;;;;6.86;71.72;102046.25;4996478;28;46017;-61
2021/12/20 01:57:34;;;;;;;;;26.00;24.00;;;;;6.80;71.40;102049.59;4996682;28;45781;-63
2021/12/20 02:00:00;;;;;;;;;25.50;23.00;;;;;6.81;71.71;102051.31;5014564;28;45359;-55
2021/12/20 02:02:26;;;;;;;;;27.25;25.00;;;;;6.76;71.30;102034.53;5033167;28;45507;-54
2021/12/20 02:04:52;;;;;;;;;32.75;25.75;;;;;6.79;71.39;102039.72;4966972;28;46101;-60
2021/12/20 02:07:35;;;;;;;;;24.20;22.80;;;;;6.75;70.87;102050.06;5033924;28;45272;-58
2021/12/20 02:10:01;;;;;;;;;32.40;27.00;;;;;6.72;71.42;102038.63;5019117;28;45354;-59
2021/12/20 02:12:26;;;;;;;;;31.50;25.25;;;;;6.74;71.33;102040.16;5034365;28;45434;-58
2021/12/20 02:14:52;;;;;;;;;20.75;16.75;;;;;6.69;71.42;102039.78;5018948;28;45500;-53
2021/12/20 02:17:17;;;;;;;;;34.50;25.75;;;;;6.46;71.49;101993.81;5014249;28;45324;-61
2021/12/20 02:19:43;;;;;;;;;33.00;25.50;;;;;6.73;71.38;102048.50;4996767;28;45372;-63
2021/12/20 02:22:08;;;;;;;;;30.50;26.25;;;;;6.50;71.42;101999.81;5014287;28;45547;-62
2021/12/20 02:24:34;;;;;;;;;30.75;30.00;;;;;6.57;71.41;102021.91;5006741;28;45716;-61
2021/12/20 02:26:59;;;;;;;;;31.50;27.50;;;;;6.18;71.31;101952.09;5009382;28;45385;-62
2021/12/20 02:29:40;;;;;;;;;37.50;30.25;;;;;6.75;71.21;102028.25;5014256;28;45826;-56
2021/12/20 02:37:34;;;;;;;;;38.00;34.20;;;;;6.72;71.18;102031.28;5015370;28;45975;-62
2021/12/20 02:39:59;;;;;;;;;37.50;36.00;;;;;6.70;71.12;102027.84;5017759;28;45239;-58
2021/12/20 02:42:31;;;;;;;;;36.25;31.25;;;;;6.54;71.23;102000.38;5017976;28;45341;-59
2021/12/20 02:45:10;;;;;;;;;39.00;36.80;;;;;6.73;70.92;102035.72;5017178;28;46623;-62
2021/12/20 02:47:39;;;;;;;;;47.00;38.00;;;;;6.79;70.42;102031.53;5017205;28;45307;-58
2021/12/20 02:50:05;;;;;;;;;31.20;26.20;;;;;6.73;70.75;102029.41;5016140;28;45353;-60
2021/12/20 02:52:31;;;;;;;;;41.50;35.75;;;;;6.63;71.04;102011.22;5017849;28;45326;-63
2021/12/20 02:54:56;;;;;;;;;39.25;35.50;;;;;6.67;71.15;102005.47;5017240;28;45792;-62
2021/12/20 02:57:22;;;;;;;;;44.50;39.25;;;;;6.74;70.66;102028.41;5017604;28;45547;-63
2021/12/20 02:59:47;;;;;;;;;39.25;34.75;;;;;6.82;71.37;102028.47;5016040;28;45394;-61
2021/12/20 03:02:13;;;;;;;;;46.00;38.75;;;;;6.82;70.90;102017.56;5030593;28;45412;-55
2021/12/20 03:04:39;;;;;;;;;44.00;37.00;;;;;6.67;71.23;101980.91;5035836;28;47254;-60
2021/12/20 03:07:07;;;;;;;;;43.25;38.00;;;;;6.94;71.08;102006.41;5037170;28;45369;-59
2021/12/20 03:09:36;;;;;;;;;43.00;36.60;;;;;6.96;71.20;102018.88;5035913;28;45397;-62
2021/12/20 03:12:02;;;;;;;;;47.20;38.40;;;;;7.00;70.94;102011.25;5037308;28;45511;-62
2021/12/20 03:14:39;;;;;;;;;43.80;40.40;;;;;6.98;70.73;101996.91;5052319;28;47761;-61
2021/12/20 03:17:05;;;;;;;;;50.60;38.80;;;;;6.88;70.64;101975.16;5035634;28;45697;-60
2021/12/20 03:19:30;;;;;;;;;45.75;37.00;;;;;7.03;70.81;101991.81;5037202;28;45343;-63
2021/12/20 03:21:56;;;;;;;;;50.25;42.75;;;;;7.07;70.85;101998.69;5037447;28;45305;-62
2021/12/20 03:24:22;;;;;;;;;47.50;38.25;;;;;7.04;70.29;101996.25;5036557;28;46245;-61
2021/12/20 03:26:47;;;;;;;;;48.75;38.75;;;;;7.04;70.78;102002.56;5018765;28;45850;-56
2021/12/20 03:29:13;;;;;;;;;49.50;37.75;;;;;7.03;70.94;101995.41;5036984;28;45402;-59
2021/12/20 03:31:39;;;;;;;;;39.50;34.75;;;;;7.09;70.81;101993.91;5037295;28;45387;-57
2021/12/20 03:34:05;;;;;;;;;51.75;42.25;;;;;7.09;70.24;101998.53;5018686;28;45638;-56
2021/12/20 03:36:31;;;;;;;;;45.60;33.40;;;;;7.09;70.63;101995.78;5036679;28;45427;-62
2021/12/20 03:38:56;;;;;;;;;55.00;39.00;;;;;7.09;70.39;101993.06;5036804;28;45307;-61
2021/12/20 03:41:22;;;;;;;;;42.50;38.50;;;;;6.98;69.98;101975.91;5019296;28;45382;-62
2021/12/20 03:43:48;;;;;;;;;51.25;37.50;;;;;6.97;70.52;101976.91;5036421;28;46032;-60
2021/12/20 03:46:13;;;;;;;;;38.50;35.75;;;;;6.83;70.39;101961.09;5036745;28;45881;-61
2021/12/20 03:48:39;;;;;;;;;46.25;35.00;;;;;6.78;70.63;101959.69;5036024;28;45387;-55
2021/12/20 03:51:05;;;;;;;;;44.50;38.25;;;;;6.94;70.67;101985.41;5036380;28;45589;-60
2021/12/20 03:53:31;;;;;;;;;43.00;35.40;;;;;6.98;70.60;101975.06;5036382;28;45327;-58
2021/12/20 03:55:57;;;;;;;;;44.60;37.60;;;;;6.99;70.65;101977.63;5036205;28;45390;-53
2021/12/20 03:58:22;;;;;;;;;39.75;35.00;;;;;6.87;70.60;101974.28;5036844;28;45260;-59
2021/12/20 04:00:49;;;;;;;;;41.25;37.50;;;;;6.82;70.30;101979.34;5036214;28;45252;-61
2021/12/20 04:03:15;;;;;;;;;33.80;27.20;;;;;6.87;70.74;101990.66;5020889;28;46406;-60
2021/12/20 04:05:41;;;;;;;;;43.75;36.75;;;;;6.85;70.32;101984.50;5032750;28;45465;-60
2021/12/20 04:08:06;;;;;;;;;40.20;29.20;;;;;6.85;70.14;101980.91;5017924;28;45368;-54
2021/12/20 04:10:32;;;;;;;;;39.50;35.25;;;;;6.85;70.11;101976.31;5018176;28;45661;-51
2021/12/20 04:12:58;;;;;;;;;42.00;31.75;;;;;6.86;71.07;101979.88;5036066;28;46268;-60
2021/12/20 04:15:23;;;;;;;;;44.00;35.50;;;;;6.72;70.67;101960.31;5036204;28;45426;-58
2021/12/20 04:17:49;;;;;;;;;46.75;38.00;;;;;6.78;70.00;101975.22;5018194;28;45434;-60
2021/12/20 04:20:15;;;;;;;;;34.50;29.50;;;;;6.87;69.98;101990.66;5018229;28;45344;-62
2021/12/20 04:22:40;;;;;;;;;27.75;25.75;;;;;6.68;70.03;101972.59;5035598;28;46767;-63
2021/12/20 04:25:06;;;;;;;;;41.25;35.00;;;;;6.37;70.02;101934.75;5035368;28;45413;-63
2021/12/20 04:27:31;;;;;;;;;39.25;35.25;;;;;6.50;71.02;101948.88;5035748;28;45631;-62
2021/12/20 04:29:57;;;;;;;;;47.25;34.75;;;;;6.75;70.30;101980.97;5001792;28;45337;-57
2021/12/20 04:32:23;;;;;;;;;36.00;30.00;;;;;6.81;70.45;101987.69;5035620;28;45323;-57
2021/12/20 04:34:48;;;;;;;;;41.50;34.25;;;;;6.61;71.16;101960.53;5035638;28;45739;-52
2021/12/20 04:37:14;;;;;;;;;34.00;30.50;;;;;6.42;70.50;101921.53;5035356;28;45427;-60
2021/12/20 04:39:40;;;;;;;;;43.40;35.20;;;;;6.82;70.69;101982.06;5036196;28;45515;-58
2021/12/20 04:42:08;;;;;;;;;36.25;34.00;;;;;6.77;70.27;101979.81;5035391;28;46508;-60
2021/12/20 04:44:34;;;;;;;;;42.40;37.80;;;;;6.59;70.80;101938.03;5035533;28;45661;-62
2021/12/20 04:46:59;;;;;;;;;46.60;38.60;;;;;6.80;70.48;101983.25;5035680;28;45601;-62
2021/12/20 04:49:25;;;;;;;;;49.50;41.75;;;;;6.59;70.68;101944.34;5017459;28;45383;-60
2021/12/20 04:51:53;;;;;;;;;26.75;23.25;;;;;6.81;70.81;101976.75;5035173;28;47348;-59
2021/12/20 04:54:19;;;;;;;;;39.20;35.20;;;;;6.87;70.59;101978.88;5017604;28;45423;-59
2021/12/20 04:56:45;;;;;;;;;39.50;33.75;;;;;6.83;71.41;101980.22;5035443;28;45902;-56
2021/12/20 04:59:10;;;;;;;;;54.50;42.25;;;;;6.80;71.16;101977.78;5035381;28;45351;-59
2021/12/20 05:01:35;;;;;;;;;40.75;35.00;;;;;6.80;71.23;101988.69;5033921;28;45561;-62
2021/12/20 05:04:01;;;;;;;;;47.00;39.25;;;;;6.80;70.57;101975.94;5035227;28;45398;-60
2021/12/20 05:06:26;;;;;;;;;45.50;35.25;;;;;6.80;71.05;101975.94;5034959;28;45431;-57
2021/12/20 05:08:55;;;;;;;;;33.50;28.00;;;;;6.76;71.08;101982.69;5017328;28;45405;-60
2021/12/20 05:11:21;;;;;;;;;43.80;35.80;;;;;6.56;71.10;101950.09;5017285;28;45748;-53
2021/12/20 05:13:46;;;;;;;;;44.00;32.50;;;;;6.72;71.27;101975.84;5017055;28;45383;-59
2021/12/20 05:16:12;;;;;;;;;38.50;35.75;;;;;6.75;71.38;101981.84;5034702;28;45423;-56
2021/12/20 05:18:37;;;;;;;;;45.00;39.00;;;;;6.73;71.14;101974.84;5035490;28;45352;-59
2021/12/20 05:21:03;;;;;;;;;40.75;33.75;;;;;6.59;71.39;101954.41;5034689;28;45985;-63
2021/12/20 05:23:28;;;;;;;;;46.75;38.00;;;;;6.72;71.02;101987.59;5034957;28;45279;-61
2021/12/20 05:25:55;;;;;;;;;31.50;26.00;;;;;6.82;71.33;101992.16;5034950;28;45358;-61
2021/12/20 05:28:21;;;;;;;;;29.60;27.00;;;;;6.85;70.85;101991.81;5035338;28;45599;-59
2021/12/20 05:30:50;;;;;;;;;44.75;35.25;;;;;6.90;71.07;101994.94;5034576;28;45442;-57
2021/12/20 05:33:15;;;;;;;;;42.80;33.40;;;;;6.89;71.13;101990.50;5000612;28;46065;-58
2021/12/20 05:35:41;;;;;;;;;41.25;31.00;;;;;6.90;70.63;101984.03;5017017;28;45339;-57
2021/12/20 05:38:06;;;;;;;;;42.50;35.75;;;;;6.76;70.57;101956.28;5000610;28;45576;-58
2021/12/20 05:40:32;;;;;;;;;31.75;29.00;;;;;6.89;70.53;101982.31;5033359;28;46311;-59
2021/12/20 05:42:57;;;;;;;;;32.25;28.50;;;;;6.60;70.52;101935.16;5034742;28;45577;-62
2021/12/20 05:45:23;;;;;;;;;37.25;32.50;;;;;6.83;70.80;101978.31;5016541;28;45271;-63
2021/12/20 05:47:49;;;;;;;;;44.20;34.20;;;;;6.86;70.55;101988.06;5034952;28;45841;-62
2021/12/20 05:50:16;;;;;;;;;31.50;26.75;;;;;6.83;70.78;101986.50;5034361;28;46713;-56
2021/12/20 05:52:41;;;;;;;;;37.20;27.80;;;;;6.84;70.70;101988.22;5016969;28;45419;-58
2021/12/20 05:55:07;;;;;;;;;43.50;31.00;;;;;6.82;70.36;101993.00;5018867;28;45407;-59
2021/12/20 05:57:33;;;;;;;;;39.60;30.00;;;;;6.82;70.38;101982.06;5030028;28;45569;-56
2021/12/20 06:00:00;;;;;;;;;32.60;28.20;;;;;6.82;70.13;101990.25;5034191;28;45521;-59
2021/12/20 06:02:25;;;;;;;;;33.00;27.60;;;;;6.84;70.14;101992.84;5034064;28;45385;-61
2021/12/20 06:04:51;;;;;;;;;35.75;32.00;;;;;6.69;70.31;101981.59;5034501;28;45375;-63
2021/12/20 06:07:18;;;;;;;;;34.00;25.50;;;;;6.54;69.74;101954.88;5034560;28;45355;-62
2021/12/20 06:09:44;;;;;;;;;33.80;28.60;;;;;6.72;69.73;101987.59;5016317;28;45922;-56
2021/12/20 06:12:10;;;;;;;;;25.75;21.75;;;;;6.68;70.13;101996.28;5034809;28;45360;-54
2021/12/20 06:14:35;;;;;;;;;37.75;30.75;;;;;6.63;70.09;101977.63;5020376;28;45319;-57
2021/12/20 06:17:01;;;;;;;;;36.25;28.75;;;;;6.41;70.19;101948.94;5037904;28;45399;-56
2021/12/20 06:19:26;;;;;;;;;35.25;29.75;;;;;6.70;70.48;101986.03;5037676;28;47423;-54
2021/12/20 06:21:52;;;;;;;;;30.75;23.00;;;;;6.70;70.45;101989.66;5037430;28;45489;-58
2021/12/20 06:24:18;;;;;;;;;30.75;28.75;;;;;6.72;70.76;101981.31;5019830;28;45336;-61
2021/12/20 06:26:43;;;;;;;;;33.75;29.50;;;;;6.77;69.72;101995.31;5019970;28;45657;-63
2021/12/20 06:29:09;;;;;;;;;38.75;27.75;;;;;6.81;69.45;101990.41;5037838;28;45405;-60
2021/12/20 06:31:34;;;;;;;;;31.75;26.00;;;;;6.80;69.06;101994.16;5038077;28;45333;-54
2021/12/20 06:34:00;;;;;;;;;26.00;22.50;;;;;6.80;68.97;101999.63;5038022;28;45327;-59
2021/12/20 06:36:28;;;;;;;;;33.50;25.50;;;;;6.64;69.52;101961.13;5038020;28;45351;-58
2021/12/20 06:38:56;;;;;;;;;32.60;24.40;;;;;6.87;69.67;102003.44;5037969;28;46556;-58
2021/12/20 06:41:21;;;;;;;;;28.40;24.00;;;;;6.87;69.28;102008.88;5037846;28;45387;-63
2021/12/20 06:43:48;;;;;;;;;29.25;21.50;;;;;6.83;68.87;102010.25;5037832;28;45433;-62
2021/12/20 06:46:14;;;;;;;;;27.00;23.20;;;;;6.77;69.13;102003.50;5037367;28;45642;-61
2021/12/20 06:48:39;;;;;;;;;27.80;22.80;;;;;6.80;68.77;102021.44;5019337;28;48682;-57
2021/12/20 06:51:05;;;;;;;;;23.50;16.00;;;;;6.69;68.32;102014.34;5037318;28;45342;-58
2021/12/20 06:53:30;;;;;;;;;29.75;22.25;;;;;6.75;68.87;102022.78;5037713;28;45364;-52
2021/12/20 06:55:56;;;;;;;;;31.75;26.75;;;;;6.78;69.04;102011.53;5037825;28;45189;-57
2021/12/20 06:58:23;;;;;;;;;28.50;23.75;;;;;6.57;68.58;101990.00;5015803;28;45950;-56
2021/12/20 07:00:51;;;;;;;;;24.60;22.20;;;;;6.65;68.93;102027.44;5036988;28;45359;-61
2021/12/20 07:03:16;;;;;;;;;26.60;22.40;;;;;6.70;69.23;102018.78;5037441;28;45981;-64
2021/12/20 07:05:42;;;;;;;;;25.25;21.25;;;;;6.40;69.16;101982.69;5037433;28;45402;-59
2021/12/20 07:08:08;;;;;;;;;22.25;19.25;;;;;6.71;69.05;102023.22;5037177;28;45750;-54
2021/12/20 07:10:33;;;;;;;;;30.75;24.75;;;;;6.72;68.68;102022.25;5019253;28;45441;-57
2021/12/20 07:12:59;;;;;;;;;28.25;22.00;;;;;6.72;69.10;102011.31;5037367;28;45391;-58
2021/12/20 07:15:25;;;;;;;;;24.25;22.50;;;;;6.67;68.91;102002.75;5037315;28;45350;-57
2021/12/20 07:17:51;;;;;;;;;33.80;27.00;;;;;6.55;68.84;101986.59;5036824;28;46104;-52
2021/12/20 07:20:16;;;;;;;;;34.75;30.75;;;;;6.55;68.81;101996.66;5019604;28;45533;-59
2021/12/20 07:22:42;;;;;;;;;32.75;29.75;;;;;6.68;68.95;102021.69;5018989;28;45422;-64
2021/12/20 07:25:08;;;;;;;;;41.00;27.00;;;;;6.75;69.04;102013.72;5035892;28;45436;-63
2021/12/20 07:27:34;;;;;;;;;37.20;32.00;;;;;6.24;68.80;101932.41;5036364;28;45341;-62
2021/12/20 07:29:59;;;;;;;;;12.50;8.75;;;;;6.70;68.41;102018.78;5018839;28;45486;-58
2021/12/20 07:32:25;;;;;;;;;30.00;26.25;;;;;6.60;68.53;102011.53;5001996;28;45443;-60
2021/12/20 07:34:51;;;;;;;;;26.25;22.75;;;;;6.57;68.75;102021.91;5036950;28;45343;-60
2021/12/20 07:37:17;;;;;;;;;40.75;32.75;;;;;6.55;69.22;102019.31;5036400;28;46134;-58
2021/12/20 07:39:43;;;;;;;;;30.60;28.80;;;;;6.54;68.91;102023.06;5036560;28;45371;-55
2021/12/20 07:42:09;;;;;;;;;29.50;23.75;;;;;6.57;68.97;102028.22;5036552;28;45437;-61
2021/12/20 07:44:34;;;;;;;;;38.00;30.80;;;;;6.49;69.13;102018.09;5036664;28;45176;-62
2021/12/20 07:47:00;;;;;;;;;35.75;31.75;;;;;6.48;69.07;102018.22;5018256;28;45685;-62
2021/12/20 07:49:25;;;;;;;;;26.50;19.50;;;;;6.51;69.88;102026.09;5036002;28;45296;-61
2021/12/20 07:51:53;;;;;;;;;34.75;24.50;;;;;6.42;69.43;101994.28;5036420;28;45209;-58
2021/12/20 07:54:19;;;;;;;;;33.20;28.00;;;;;6.63;69.27;102024.03;5036544;28;45189;-59
2021/12/20 07:56:44;;;;;;;;;30.50;27.75;;;;;6.63;69.56;102022.13;5036035;28;45712;-57
2021/12/20 07:59:10;;;;;;;;;33.00;24.25;;;;;6.62;69.59;102017.69;5036183;28;45428;-53
2021/12/20 08:01:35;;;;;;;;;41.50;26.75;;;;;6.68;69.40;102026.28;5035973;28;45465;-59
2021/12/20 08:04:02;;;;;;;;;30.25;26.00;;;;;6.57;69.17;102006.38;5036566;28;45830;-62
2021/12/20 08:06:27;;;;;;;;;35.20;25.40;;;;;6.65;68.94;102032.91;5036148;28;45959;-61
2021/12/20 08:08:53;;;;;;;;;30.00;26.00;;;;;6.57;68.87;102016.44;5036291;28;45378;-63
2021/12/20 08:11:18;;;;;;;;;30.50;23.75;;;;;6.72;69.03;102033.16;5002087;28;45803;-63
2021/12/20 08:13:46;;;;;;;;;30.00;27.50;;;;;6.68;68.25;102018.09;5036332;28;45375;-54
2021/12/20 08:16:13;;;;;;;;;33.20;28.80;;;;;6.64;68.39;102029.34;5017726;28;47673;-58
2021/12/20 08:18:40;;;;;;;;;30.60;25.80;;;;;6.64;69.48;102026.59;5035913;28;45455;-57
2021/12/20 08:21:05;;;;;;;;;33.40;29.80;;;;;6.60;68.83;102014.28;5017922;28;45448;-61
2021/12/20 08:23:31;;;;;;;;;38.00;28.00;;;;;6.61;68.72;102021.44;5035755;28;45389;-62
2021/12/20 08:25:57;;;;;;;;;36.50;27.25;;;;;6.75;69.04;102041.03;5035780;28;46047;-64
2021/12/20 08:28:22;;;;;;;;;35.00;30.50;;;;;6.79;68.47;102047.91;5035704;28;45456;-58
2021/12/20 08:30:48;;;;;;;;;34.25;26.25;;;;;6.80;68.39;102046.88;5036024;28;45386;-57
2021/12/20 08:33:14;;;;;;;;;34.00;20.50;;;;;6.82;68.36;102042.13;5036143;28;45286;-59
2021/12/20 08:35:40;;;;;;;;;30.50;25.50;;;;;6.80;67.20;102055.06;5035707;28;46011;-58
2021/12/20 08:38:05;;;;;;;;;30.80;26.20;;;;;6.77;68.45;102049.91;5035526;28;45340;-57
2021/12/20 08:40:31;;;;;;;;;32.50;27.50;;;;;6.75;67.45;102057.41;5018031;28;45399;-54
2021/12/20 08:42:56;;;;;;;;;26.00;20.00;;;;;6.70;67.72;102059.72;5035950;28;45342;-60
2021/12/20 08:45:22;;;;;;;;;29.50;25.50;;;;;6.73;68.24;102063.00;5035608;28;45547;-60
2021/12/20 08:47:48;;;;;;;;;34.25;26.25;;;;;6.76;67.83;102061.84;5035514;28;45383;-63
2021/12/20 08:50:16;;;;;;;;;32.25;26.25;;;;;6.71;67.33;102045.94;5035853;28;45303;-62
2021/12/20 08:52:41;;;;;;;;;33.00;25.60;;;;;6.75;67.73;102062.84;5035611;28;45525;-54
2021/12/20 08:55:07;;;;;;;;;34.75;30.75;;;;;6.30;67.48;101997.22;5001083;28;47013;-58
2021/12/20 08:57:33;;;;;;;;;27.20;26.00;;;;;6.75;67.46;102062.84;5035534;28;45351;-55
2021/12/20 08:59:59;;;;;;;;;30.50;25.25;;;;;6.40;66.93;102024.44;5035648;28;45426;-54
2021/12/20 09:02:24;;;;;;;;;33.75;25.75;;;;;6.67;67.74;102065.50;5035346;28;45512;-61
2021/12/20 09:04:50;;;;;;;;;34.75;26.75;;;;;6.47;66.76;102038.34;5035188;28;45420;-60
2021/12/20 09:07:16;;;;;;;;;33.50;29.75;;;;;6.70;67.07;102071.50;5035630;28;45365;-62
2021/12/20 09:09:47;;;;;;;;;33.00;27.80;;;;;6.49;67.14;102036.31;5017287;28;45359;-60
2021/12/20 09:12:15;;;;;;;;;34.60;29.80;;;;;6.76;66.43;102070.88;5001162;28;45309;-55
2021/12/20 09:14:41;;;;;;;;;31.80;27.00;;;;;6.69;66.43;102066.19;5017205;28;48349;-54
2021/12/20 09:17:06;;;;;;;;;34.00;30.25;;;;;6.60;66.80;102051.59;5035378;28;45268;-61
2021/12/20 09:19:34;;;;;;;;;36.50;27.25;;;;;6.75;66.88;102061.00;5035127;28;45276;-63
2021/12/20 09:22:00;;;;;;;;;30.60;25.60;;;;;6.70;66.49;102065.19;5035541;28;45358;-62
2021/12/20 09:24:25;;;;;;;;;32.00;24.50;;;;;6.74;67.04;102072.91;5028701;28;46152;-57
2021/12/20 09:26:51;;;;;;;;;33.75;26.75;;;;;6.80;66.20;102076.91;5034741;28;45423;-59
2021/12/20 09:29:16;;;;;;;;;36.25;27.50;;;;;6.83;66.16;102076.56;5035013;28;45405;-58
2021/12/20 09:31:44;;;;;;;;;30.50;26.50;;;;;6.86;66.11;102069.94;5035105;28;45654;-60
2021/12/20 09:34:10;;;;;;;;;36.00;29.00;;;;;6.75;66.23;102046.47;5033092;28;47532;-61
2021/12/20 09:36:36;;;;;;;;;25.80;22.80;;;;;6.91;66.73;102078.53;5033669;28;45536;-63
2021/12/20 09:39:01;;;;;;;;;31.75;28.75;;;;;6.77;66.31;102056.22;5033278;28;45470;-62
2021/12/20 09:44:01;;;;;;;;;28.00;24.20;;;;;6.93;66.18;102083.84;5033189;28;45838;-60
2021/12/20 09:46:27;;;;;;;;;27.00;23.60;;;;;6.88;66.27;102068.78;5032735;28;45200;-61
2021/12/20 09:48:52;;;;;;;;;36.00;25.50;;;;;6.90;65.86;102071.38;5034203;28;45357;-58
2021/12/20 09:51:18;;;;;;;;;36.50;27.75;;;;;6.91;65.63;102082.13;5033739;28;45608;-62
2021/12/20 09:53:43;;;;;;;;;31.75;25.25;;;;;6.84;65.94;102074.72;5034373;28;45627;-64
2021/12/20 09:56:10;;;;;;;;;34.00;27.50;;;;;6.82;66.13;102069.41;5034626;28;45318;-62
2021/12/20 09:58:39;;;;;;;;;33.20;27.00;;;;;6.68;65.97;102040.78;5034506;28;45539;-53
2021/12/20 10:01:07;;;;;;;;;38.80;27.40;;;;;6.91;65.97;102073.94;5033434;28;45252;-59
2021/12/20 10:03:33;;;;;;;;;40.00;32.40;;;;;6.95;66.30;102079.09;5034191;28;46220;-61
2021/12/20 10:05:59;;;;;;;;;30.25;26.75;;;;;6.92;65.58;102080.25;5034383;28;45456;-63
2021/12/20 10:08:35;;;;;;;;;26.80;26.40;;;;;6.91;65.73;102078.53;5034307;28;45402;-63
2021/12/20 10:11:05;;;;;;;;;32.80;24.80;;;;;6.85;65.79;102088.22;5034451;28;45497;-52
2021/12/20 10:13:35;;;;;;;;;30.40;25.40;;;;;6.82;65.88;102079.47;5033948;28;46646;-64
2021/12/20 10:16:03;;;;;;;;;34.00;23.40;;;;;6.60;65.63;102044.28;5034244;28;45402;-55
2021/12/20 10:18:30;;;;;;;;;28.40;22.80;;;;;6.87;66.33;102090.78;5034150;28;45412;-59
2021/12/20 10:20:58;;;;;;;;;30.80;26.00;;;;;6.88;65.64;102074.25;5033276;28;45709;-59
2021/12/20 10:23:31;;;;;;;;;31.60;24.20;;;;;6.93;65.54;102079.22;5049087;28;46729;-64
2021/12/20 10:25:59;;;;;;;;;29.40;25.00;;;;;6.92;65.23;102082.97;5049749;28;45342;-60
2021/12/20 10:28:26;;;;;;;;;33.20;25.20;;;;;6.83;65.53;102060.19;5034229;28;45499;-59
2021/12/20 10:31:06;;;;;;;;;34.40;25.80;;;;;6.94;65.31;102071.91;5033431;28;45338;-63
2021/12/20 10:33:32;;;;;;;;;29.00;22.40;;;;;6.93;65.37;102072.94;5034102;28;45775;-59
2021/12/20 10:36:03;;;;;;;;;34.50;25.75;;;;;6.95;65.35;102073.63;5034551;28;45302;-56
2021/12/20 10:38:37;;;;;;;;;30.00;25.40;;;;;6.83;65.16;102053.91;5034039;28;45341;-62
2021/12/20 10:41:18;;;;;;;;;28.40;22.00;;;;;6.85;65.56;102060.06;5034472;28;45311;-59
2021/12/20 10:43:55;;;;;;;;;32.40;22.60;;;;;6.97;66.24;102066.13;5033893;28;45566;-57
2021/12/20 10:46:28;;;;;;;;;26.40;21.60;;;;;6.96;65.13;102069.88;5032131;28;45459;-62
2021/12/20 10:49:05;;;;;;;;;23.40;19.40;;;;;6.96;65.26;102058.97;5034400;28;45317;-59
2021/12/20 10:51:48;;;;;;;;;18.40;17.80;;;;;7.00;65.75;102058.50;5034299;28;45400;-57
2021/12/20 10:54:17;;;;;;;;;24.20;19.40;;;;;7.01;64.91;102059.34;5032664;28;45680;-56
2021/12/20 10:57:05;;;;;;;;;21.00;18.80;;;;;6.98;64.90;102052.34;5026869;28;45857;-57
2021/12/20 10:59:33;;;;;;;;;25.80;22.00;;;;;7.11;65.09;102057.41;5018685;28;45439;-53
2021/12/20 11:04:31;;;;;;;;;22.20;17.80;;;;;7.07;65.21;102055.13;5036074;28;46539;-60
2021/12/20 11:09:50;;;;;;;;;20.40;16.80;;;;;7.00;64.98;102055.75;5017156;28;45429;-60
2021/12/20 11:12:20;;;;;;;;;16.40;16.40;;;;;7.04;64.47;102057.19;5053109;28;45509;-61
2021/12/20 11:14:47;;;;;;;;;21.20;16.80;;;;;7.04;65.10;102046.25;5036989;28;46207;-57
2021/12/20 11:17:14;;;;;;;;;21.20;18.20;;;;;6.88;64.71;102011.47;5019364;28;45428;-57
2021/12/20 11:19:43;;;;;;;;;17.00;15.40;;;;;7.06;64.22;102043.38;5036995;28;45316;-56
2021/12/20 11:22:13;;;;;;;;;16.20;13.60;;;;;7.00;64.90;102038.53;5037430;28;45414;-58
2021/12/20 11:24:47;;;;;;;;;18.00;15.40;;;;;7.03;64.83;102049.13;5034832;28;45450;-58
2021/12/20 11:27:14;;;;;;;;;16.40;11.40;;;;;7.04;64.45;102053.56;5035497;28;45451;-61
2021/12/20 11:29:40;;;;;;;;;17.60;16.40;;;;;7.01;63.82;102042.97;5037042;28;45818;-60
2021/12/20 11:32:06;;;;;;;;;19.50;16.00;;;;;6.99;64.51;102037.66;5037449;28;45758;-57